sensor_id;sensor_type;location;lat;lon;timestamp;P1;durP1;ratioP1;P2;durP2;ratioP2
22715;SDS011;11525;51.152;4.456;2023-02-26T00:00:11;10.45;;;4.97;;
22715;SDS011;11525;51.152;4.456;2023-02-26T00:02:43;13.82;;;5.43;;
22715;SDS011;11525;51.152;4.456;2023-02-26T00:05:10;15.93;;;5.85;;
22715;SDS011;11525;51.152;4.456;2023-02-26T00:07:36;20.20;;;5.95;;
22715;SDS011;11525;51.152;4.456;2023-02-26T00:10:03;14.15;;;6.22;;
22715;SDS011;11525;51.152;4.456;2023-02-26T00:12:31;12.73;;;5.90;;
22715;SDS011;11525;51.152;4.456;2023-02-26T00:14:57;15.45;;;5.53;;
22715;SDS011;11525;51.152;4.456;2023-02-26T00:20:17;13.48;;;5.80;;
22715;SDS011;11525;51.152;4.456;2023-02-26T00:22:43;15.95;;;5.63;;
22715;SDS011;11525;51.152;4.456;2023-02-26T00:25:09;15.52;;;5.70;;
22715;SDS011;11525;51.152;4.456;2023-02-26T00:27:36;11.48;;;5.15;;
22715;SDS011;11525;51.152;4.456;2023-02-26T00:30:03;14.00;;;5.60;;
22715;SDS011;11525;51.152;4.456;2023-02-26T00:32:29;17.02;;;6.18;;
22715;SDS011;11525;51.152;4.456;2023-02-26T00:34:56;17.23;;;6.25;;
22715;SDS011;11525;51.152;4.456;2023-02-26T00:37:26;13.73;;;6.18;;
22715;SDS011;11525;51.152;4.456;2023-02-26T00:42:40;14.35;;;5.65;;
22715;SDS011;11525;51.152;4.456;2023-02-26T00:45:06;22.27;;;6.38;;
22715;SDS011;11525;51.152;4.456;2023-02-26T00:50:32;16.27;;;6.90;;
22715;SDS011;11525;51.152;4.456;2023-02-26T00:53:07;16.00;;;6.32;;
22715;SDS011;11525;51.152;4.456;2023-02-26T00:56:02;16.25;;;6.07;;
22715;SDS011;11525;51.152;4.456;2023-02-26T00:58:27;13.10;;;5.38;;
22715;SDS011;11525;51.152;4.456;2023-02-26T01:00:53;16.67;;;5.13;;
22715;SDS011;11525;51.152;4.456;2023-02-26T01:03:19;15.07;;;5.97;;
22715;SDS011;11525;51.152;4.456;2023-02-26T01:05:45;12.50;;;5.45;;
22715;SDS011;11525;51.152;4.456;2023-02-26T01:08:14;12.65;;;5.32;;
22715;SDS011;11525;51.152;4.456;2023-02-26T01:10:57;15.23;;;5.75;;
22715;SDS011;11525;51.152;4.456;2023-02-26T01:13:23;10.68;;;4.97;;
22715;SDS011;11525;51.152;4.456;2023-02-26T01:15:50;16.52;;;6.80;;
22715;SDS011;11525;51.152;4.456;2023-02-26T01:18:32;18.15;;;5.90;;
22715;SDS011;11525;51.152;4.456;2023-02-26T01:21:07;19.92;;;6.03;;
22715;SDS011;11525;51.152;4.456;2023-02-26T01:23:40;10.55;;;5.93;;
22715;SDS011;11525;51.152;4.456;2023-02-26T01:26:21;10.93;;;5.05;;
22715;SDS011;11525;51.152;4.456;2023-02-26T01:28:50;11.02;;;5.50;;
22715;SDS011;11525;51.152;4.456;2023-02-26T01:36:46;18.20;;;5.53;;
22715;SDS011;11525;51.152;4.456;2023-02-26T01:39:45;13.70;;;4.85;;
22715;SDS011;11525;51.152;4.456;2023-02-26T01:42:22;12.75;;;5.35;;
22715;SDS011;11525;51.152;4.456;2023-02-26T01:44:55;17.08;;;5.97;;
22715;SDS011;11525;51.152;4.456;2023-02-26T01:47:39;15.25;;;5.40;;
22715;SDS011;11525;51.152;4.456;2023-02-26T01:50:10;9.70;;;4.32;;
22715;SDS011;11525;51.152;4.456;2023-02-26T01:55:20;12.10;;;4.40;;
22715;SDS011;11525;51.152;4.456;2023-02-26T01:57:48;11.27;;;5.22;;
22715;SDS011;11525;51.152;4.456;2023-02-26T02:00:17;14.18;;;4.97;;
22715;SDS011;11525;51.152;4.456;2023-02-26T02:02:43;14.80;;;4.47;;
22715;SDS011;11525;51.152;4.456;2023-02-26T02:05:14;9.90;;;4.90;;
22715;SDS011;11525;51.152;4.456;2023-02-26T02:07:55;13.05;;;4.70;;
22715;SDS011;11525;51.152;4.456;2023-02-26T02:10:22;15.20;;;4.65;;
22715;SDS011;11525;51.152;4.456;2023-02-26T02:12:57;12.57;;;4.82;;
22715;SDS011;11525;51.152;4.456;2023-02-26T02:19:12;9.30;;;4.25;;
22715;SDS011;11525;51.152;4.456;2023-02-26T02:21:27;18.80;;;4.88;;
22715;SDS011;11525;51.152;4.456;2023-02-26T02:24:00;8.63;;;4.20;;
22715;SDS011;11525;51.152;4.456;2023-02-26T02:32:21;7.22;;;3.70;;
22715;SDS011;11525;51.152;4.456;2023-02-26T02:34:58;8.18;;;3.80;;
22715;SDS011;11525;51.152;4.456;2023-02-26T02:37:39;7.88;;;3.95;;
22715;SDS011;11525;51.152;4.456;2023-02-26T02:42:38;11.05;;;3.80;;
22715;SDS011;11525;51.152;4.456;2023-02-26T02:45:18;8.13;;;4.10;;
22715;SDS011;11525;51.152;4.456;2023-02-26T02:47:51;7.57;;;3.90;;
22715;SDS011;11525;51.152;4.456;2023-02-26T02:53:24;14.45;;;4.68;;
22715;SDS011;11525;51.152;4.456;2023-02-26T02:55:58;10.90;;;4.05;;
22715;SDS011;11525;51.152;4.456;2023-02-26T02:58:39;10.88;;;4.65;;
22715;SDS011;11525;51.152;4.456;2023-02-26T03:01:10;10.13;;;4.35;;
22715;SDS011;11525;51.152;4.456;2023-02-26T03:06:39;13.07;;;4.47;;
22715;SDS011;11525;51.152;4.456;2023-02-26T03:09:06;9.52;;;4.25;;
22715;SDS011;11525;51.152;4.456;2023-02-26T03:11:33;9.88;;;4.65;;
22715;SDS011;11525;51.152;4.456;2023-02-26T03:14:00;9.82;;;4.43;;
22715;SDS011;11525;51.152;4.456;2023-02-26T03:17:10;13.38;;;4.40;;
22715;SDS011;11525;51.152;4.456;2023-02-26T03:26:10;9.38;;;4.00;;
22715;SDS011;11525;51.152;4.456;2023-02-26T03:28:26;12.32;;;4.45;;
22715;SDS011;11525;51.152;4.456;2023-02-26T03:36:30;8.93;;;4.25;;
22715;SDS011;11525;51.152;4.456;2023-02-26T03:39:03;8.93;;;4.22;;
22715;SDS011;11525;51.152;4.456;2023-02-26T03:41:46;9.02;;;3.78;;
22715;SDS011;11525;51.152;4.456;2023-02-26T03:44:21;13.98;;;3.88;;
22715;SDS011;11525;51.152;4.456;2023-02-26T03:47:10;10.02;;;3.45;;
22715;SDS011;11525;51.152;4.456;2023-02-26T03:49:44;10.52;;;3.60;;
22715;SDS011;11525;51.152;4.456;2023-02-26T03:52:17;10.20;;;4.00;;
22715;SDS011;11525;51.152;4.456;2023-02-26T03:54:48;12.40;;;3.30;;
22715;SDS011;11525;51.152;4.456;2023-02-26T03:57:38;5.97;;;3.40;;
22715;SDS011;11525;51.152;4.456;2023-02-26T04:00:05;10.05;;;3.83;;
22715;SDS011;11525;51.152;4.456;2023-02-26T04:02:37;9.60;;;4.00;;
22715;SDS011;11525;51.152;4.456;2023-02-26T04:05:10;6.82;;;3.30;;
22715;SDS011;11525;51.152;4.456;2023-02-26T04:07:43;7.82;;;3.45;;
22715;SDS011;11525;51.152;4.456;2023-02-26T04:10:12;6.80;;;3.65;;
22715;SDS011;11525;51.152;4.456;2023-02-26T04:12:41;7.80;;;3.55;;
22715;SDS011;11525;51.152;4.456;2023-02-26T04:15:07;9.88;;;3.60;;
22715;SDS011;11525;51.152;4.456;2023-02-26T04:17:33;7.70;;;3.33;;
22715;SDS011;11525;51.152;4.456;2023-02-26T04:19:59;8.20;;;3.90;;
22715;SDS011;11525;51.152;4.456;2023-02-26T04:22:25;7.13;;;3.58;;
22715;SDS011;11525;51.152;4.456;2023-02-26T04:24:50;7.30;;;3.60;;
22715;SDS011;11525;51.152;4.456;2023-02-26T04:27:16;8.40;;;3.47;;
22715;SDS011;11525;51.152;4.456;2023-02-26T04:29:42;5.90;;;3.08;;
22715;SDS011;11525;51.152;4.456;2023-02-26T04:32:08;8.43;;;3.35;;
22715;SDS011;11525;51.152;4.456;2023-02-26T04:34:33;5.68;;;3.30;;
22715;SDS011;11525;51.152;4.456;2023-02-26T04:36:59;7.93;;;3.28;;
22715;SDS011;11525;51.152;4.456;2023-02-26T04:39:25;8.90;;;3.53;;
22715;SDS011;11525;51.152;4.456;2023-02-26T04:41:50;18.17;;;5.00;;
22715;SDS011;11525;51.152;4.456;2023-02-26T04:44:16;5.47;;;2.72;;
22715;SDS011;11525;51.152;4.456;2023-02-26T04:46:42;8.50;;;3.50;;
22715;SDS011;11525;51.152;4.456;2023-02-26T04:49:08;8.30;;;3.20;;
22715;SDS011;11525;51.152;4.456;2023-02-26T04:51:34;7.80;;;3.05;;
22715;SDS011;11525;51.152;4.456;2023-02-26T04:53:59;6.03;;;2.88;;
22715;SDS011;11525;51.152;4.456;2023-02-26T04:56:25;8.93;;;2.85;;
22715;SDS011;11525;51.152;4.456;2023-02-26T04:58:51;11.10;;;4.18;;
22715;SDS011;11525;51.152;4.456;2023-02-26T05:01:17;6.07;;;2.60;;
22715;SDS011;11525;51.152;4.456;2023-02-26T05:03:42;10.07;;;3.10;;
22715;SDS011;11525;51.152;4.456;2023-02-26T05:06:09;10.73;;;3.75;;
22715;SDS011;11525;51.152;4.456;2023-02-26T05:08:35;7.25;;;3.38;;
22715;SDS011;11525;51.152;4.456;2023-02-26T05:11:05;7.40;;;2.95;;
22715;SDS011;11525;51.152;4.456;2023-02-26T05:13:31;5.63;;;3.17;;
22715;SDS011;11525;51.152;4.456;2023-02-26T05:15:56;6.90;;;3.17;;
22715;SDS011;11525;51.152;4.456;2023-02-26T05:18:22;6.97;;;2.97;;
22715;SDS011;11525;51.152;4.456;2023-02-26T05:20:52;6.63;;;2.95;;
22715;SDS011;11525;51.152;4.456;2023-02-26T05:23:19;7.28;;;2.65;;
22715;SDS011;11525;51.152;4.456;2023-02-26T05:25:45;9.13;;;2.97;;
22715;SDS011;11525;51.152;4.456;2023-02-26T05:28:11;5.90;;;3.05;;
22715;SDS011;11525;51.152;4.456;2023-02-26T05:30:38;8.80;;;2.97;;
22715;SDS011;11525;51.152;4.456;2023-02-26T05:33:04;7.72;;;2.88;;
22715;SDS011;11525;51.152;4.456;2023-02-26T05:35:29;8.27;;;3.53;;
22715;SDS011;11525;51.152;4.456;2023-02-26T05:37:55;5.43;;;3.08;;
22715;SDS011;11525;51.152;4.456;2023-02-26T05:40:21;9.45;;;2.83;;
22715;SDS011;11525;51.152;4.456;2023-02-26T05:42:47;6.43;;;3.00;;
22715;SDS011;11525;51.152;4.456;2023-02-26T05:45:12;13.02;;;3.35;;
22715;SDS011;11525;51.152;4.456;2023-02-26T05:47:38;8.05;;;3.13;;
22715;SDS011;11525;51.152;4.456;2023-02-26T05:50:04;6.85;;;2.85;;
22715;SDS011;11525;51.152;4.456;2023-02-26T05:52:31;6.50;;;2.90;;
22715;SDS011;11525;51.152;4.456;2023-02-26T05:54:57;9.10;;;3.55;;
22715;SDS011;11525;51.152;4.456;2023-02-26T05:57:23;9.73;;;3.45;;
22715;SDS011;11525;51.152;4.456;2023-02-26T05:59:49;9.30;;;3.72;;
22715;SDS011;11525;51.152;4.456;2023-02-26T06:02:15;8.85;;;3.35;;
22715;SDS011;11525;51.152;4.456;2023-02-26T06:04:41;5.32;;;2.70;;
22715;SDS011;11525;51.152;4.456;2023-02-26T06:07:07;12.45;;;3.42;;
22715;SDS011;11525;51.152;4.456;2023-02-26T06:09:32;4.53;;;2.88;;
22715;SDS011;11525;51.152;4.456;2023-02-26T06:11:58;7.22;;;3.03;;
22715;SDS011;11525;51.152;4.456;2023-02-26T06:14:24;11.15;;;4.15;;
22715;SDS011;11525;51.152;4.456;2023-02-26T06:16:50;5.35;;;2.28;;
22715;SDS011;11525;51.152;4.456;2023-02-26T06:19:15;6.80;;;2.63;;
22715;SDS011;11525;51.152;4.456;2023-02-26T06:21:41;6.63;;;2.60;;
22715;SDS011;11525;51.152;4.456;2023-02-26T06:24:07;4.32;;;2.90;;
22715;SDS011;11525;51.152;4.456;2023-02-26T06:26:32;5.90;;;2.80;;
22715;SDS011;11525;51.152;4.456;2023-02-26T06:28:58;6.75;;;2.80;;
22715;SDS011;11525;51.152;4.456;2023-02-26T06:31:24;8.45;;;2.92;;
22715;SDS011;11525;51.152;4.456;2023-02-26T06:33:50;7.72;;;3.30;;
22715;SDS011;11525;51.152;4.456;2023-02-26T06:36:15;6.53;;;2.83;;
22715;SDS011;11525;51.152;4.456;2023-02-26T06:38:41;4.88;;;2.95;;
22715;SDS011;11525;51.152;4.456;2023-02-26T06:41:09;5.35;;;2.50;;
22715;SDS011;11525;51.152;4.456;2023-02-26T06:43:35;6.10;;;2.38;;
22715;SDS011;11525;51.152;4.456;2023-02-26T06:46:01;6.07;;;2.75;;
22715;SDS011;11525;51.152;4.456;2023-02-26T06:48:27;9.57;;;2.88;;
22715;SDS011;11525;51.152;4.456;2023-02-26T06:50:53;9.88;;;2.45;;
22715;SDS011;11525;51.152;4.456;2023-02-26T06:53:19;7.57;;;2.85;;
22715;SDS011;11525;51.152;4.456;2023-02-26T06:55:45;9.52;;;3.22;;
22715;SDS011;11525;51.152;4.456;2023-02-26T06:58:13;7.32;;;3.15;;
22715;SDS011;11525;51.152;4.456;2023-02-26T07:00:39;9.23;;;3.03;;
22715;SDS011;11525;51.152;4.456;2023-02-26T07:03:06;7.82;;;2.95;;
22715;SDS011;11525;51.152;4.456;2023-02-26T07:05:35;4.35;;;2.80;;
22715;SDS011;11525;51.152;4.456;2023-02-26T07:08:01;4.78;;;2.40;;
22715;SDS011;11525;51.152;4.456;2023-02-26T07:10:27;4.68;;;2.85;;
22715;SDS011;11525;51.152;4.456;2023-02-26T07:12:53;5.22;;;2.80;;
22715;SDS011;11525;51.152;4.456;2023-02-26T07:15:18;6.00;;;2.95;;
22715;SDS011;11525;51.152;4.456;2023-02-26T07:17:44;10.63;;;3.05;;
22715;SDS011;11525;51.152;4.456;2023-02-26T07:20:10;7.22;;;2.83;;
22715;SDS011;11525;51.152;4.456;2023-02-26T07:22:37;4.82;;;2.70;;
22715;SDS011;11525;51.152;4.456;2023-02-26T07:25:04;5.05;;;2.60;;
22715;SDS011;11525;51.152;4.456;2023-02-26T07:27:31;7.80;;;2.50;;
22715;SDS011;11525;51.152;4.456;2023-02-26T07:29:57;8.50;;;2.80;;
22715;SDS011;11525;51.152;4.456;2023-02-26T07:32:23;8.98;;;3.13;;
22715;SDS011;11525;51.152;4.456;2023-02-26T07:34:49;5.93;;;2.38;;
22715;SDS011;11525;51.152;4.456;2023-02-26T07:37:15;7.03;;;2.70;;
22715;SDS011;11525;51.152;4.456;2023-02-26T07:39:41;5.00;;;2.28;;
22715;SDS011;11525;51.152;4.456;2023-02-26T07:42:07;5.53;;;2.28;;
22715;SDS011;11525;51.152;4.456;2023-02-26T07:44:33;7.65;;;3.05;;
22715;SDS011;11525;51.152;4.456;2023-02-26T07:46:59;6.53;;;2.40;;
22715;SDS011;11525;51.152;4.456;2023-02-26T07:49:25;2.95;;;2.35;;
22715;SDS011;11525;51.152;4.456;2023-02-26T07:51:51;4.70;;;2.35;;
22715;SDS011;11525;51.152;4.456;2023-02-26T07:54:16;6.13;;;3.08;;
22715;SDS011;11525;51.152;4.456;2023-02-26T07:56:42;4.45;;;2.35;;
22715;SDS011;11525;51.152;4.456;2023-02-26T07:59:09;6.38;;;2.08;;
22715;SDS011;11525;51.152;4.456;2023-02-26T08:01:36;5.63;;;2.72;;
22715;SDS011;11525;51.152;4.456;2023-02-26T08:04:02;6.95;;;2.70;;
22715;SDS011;11525;51.152;4.456;2023-02-26T08:06:28;8.90;;;2.70;;
22715;SDS011;11525;51.152;4.456;2023-02-26T08:08:54;6.13;;;3.35;;
22715;SDS011;11525;51.152;4.456;2023-02-26T08:11:20;7.43;;;2.60;;
22715;SDS011;11525;51.152;4.456;2023-02-26T08:13:46;6.95;;;2.70;;
22715;SDS011;11525;51.152;4.456;2023-02-26T08:16:12;10.35;;;2.38;;
22715;SDS011;11525;51.152;4.456;2023-02-26T08:18:37;10.18;;;2.15;;
22715;SDS011;11525;51.152;4.456;2023-02-26T08:21:03;5.93;;;2.22;;
22715;SDS011;11525;51.152;4.456;2023-02-26T08:23:29;6.97;;;2.00;;
22715;SDS011;11525;51.152;4.456;2023-02-26T08:26:03;5.65;;;2.20;;
22715;SDS011;11525;51.152;4.456;2023-02-26T08:28:30;6.68;;;2.47;;
22715;SDS011;11525;51.152;4.456;2023-02-26T08:30:57;8.80;;;4.53;;
22715;SDS011;11525;51.152;4.456;2023-02-26T08:33:22;5.05;;;2.13;;
22715;SDS011;11525;51.152;4.456;2023-02-26T08:35:49;6.05;;;2.60;;
22715;SDS011;11525;51.152;4.456;2023-02-26T08:38:16;4.85;;;2.85;;
22715;SDS011;11525;51.152;4.456;2023-02-26T08:40:42;5.20;;;2.97;;
22715;SDS011;11525;51.152;4.456;2023-02-26T08:43:08;8.38;;;3.05;;
22715;SDS011;11525;51.152;4.456;2023-02-26T08:45:35;6.78;;;3.28;;
22715;SDS011;11525;51.152;4.456;2023-02-26T08:48:02;4.15;;;2.55;;
22715;SDS011;11525;51.152;4.456;2023-02-26T08:50:28;7.90;;;2.70;;
22715;SDS011;11525;51.152;4.456;2023-02-26T08:52:54;3.33;;;2.50;;
22715;SDS011;11525;51.152;4.456;2023-02-26T08:55:20;4.00;;;2.25;;
22715;SDS011;11525;51.152;4.456;2023-02-26T08:57:46;2.55;;;2.15;;
22715;SDS011;11525;51.152;4.456;2023-02-26T09:00:12;7.40;;;2.72;;
22715;SDS011;11525;51.152;4.456;2023-02-26T09:02:42;4.50;;;1.92;;
22715;SDS011;11525;51.152;4.456;2023-02-26T09:05:12;3.13;;;1.92;;
22715;SDS011;11525;51.152;4.456;2023-02-26T09:07:39;4.20;;;1.95;;
22715;SDS011;11525;51.152;4.456;2023-02-26T09:10:05;3.58;;;1.83;;
22715;SDS011;11525;51.152;4.456;2023-02-26T09:12:31;5.80;;;1.92;;
22715;SDS011;11525;51.152;4.456;2023-02-26T09:15:00;4.88;;;2.08;;
22715;SDS011;11525;51.152;4.456;2023-02-26T09:17:25;3.38;;;2.17;;
22715;SDS011;11525;51.152;4.456;2023-02-26T09:19:52;7.70;;;1.90;;
22715;SDS011;11525;51.152;4.456;2023-02-26T09:22:17;4.07;;;1.70;;
22715;SDS011;11525;51.152;4.456;2023-02-26T09:24:43;4.03;;;1.88;;
22715;SDS011;11525;51.152;4.456;2023-02-26T09:27:09;2.33;;;1.55;;
22715;SDS011;11525;51.152;4.456;2023-02-26T09:29:35;3.13;;;1.63;;
22715;SDS011;11525;51.152;4.456;2023-02-26T09:32:01;5.95;;;2.00;;
22715;SDS011;11525;51.152;4.456;2023-02-26T09:34:29;5.03;;;1.75;;
22715;SDS011;11525;51.152;4.456;2023-02-26T09:36:55;3.28;;;1.70;;
22715;SDS011;11525;51.152;4.456;2023-02-26T09:39:20;2.33;;;1.88;;
22715;SDS011;11525;51.152;4.456;2023-02-26T09:41:52;7.03;;;1.90;;
22715;SDS011;11525;51.152;4.456;2023-02-26T09:44:22;3.55;;;1.80;;
22715;SDS011;11525;51.152;4.456;2023-02-26T09:51:53;3.90;;;1.98;;
22715;SDS011;11525;51.152;4.456;2023-02-26T09:54:25;3.17;;;1.98;;
22715;SDS011;11525;51.152;4.456;2023-02-26T09:56:55;6.85;;;2.03;;
22715;SDS011;11525;51.152;4.456;2023-02-26T09:59:25;6.18;;;1.95;;
22715;SDS011;11525;51.152;4.456;2023-02-26T10:02:37;3.58;;;1.55;;
22715;SDS011;11525;51.152;4.456;2023-02-26T10:07:50;5.05;;;1.95;;
22715;SDS011;11525;51.152;4.456;2023-02-26T10:10:32;5.13;;;1.60;;
22715;SDS011;11525;51.152;4.456;2023-02-26T10:13:08;4.75;;;1.70;;
22715;SDS011;11525;51.152;4.456;2023-02-26T10:16:05;2.63;;;1.40;;
22715;SDS011;11525;51.152;4.456;2023-02-26T10:18:44;3.70;;;1.40;;
22715;SDS011;11525;51.152;4.456;2023-02-26T10:21:28;2.25;;;1.65;;
22715;SDS011;11525;51.152;4.456;2023-02-26T10:24:10;7.65;;;2.95;;
22715;SDS011;11525;51.152;4.456;2023-02-26T10:27:05;2.15;;;1.60;;
22715;SDS011;11525;51.152;4.456;2023-02-26T10:29:39;3.83;;;2.03;;
22715;SDS011;11525;51.152;4.456;2023-02-26T10:32:29;2.90;;;1.65;;
22715;SDS011;11525;51.152;4.456;2023-02-26T10:37:58;4.93;;;2.10;;
22715;SDS011;11525;51.152;4.456;2023-02-26T10:40:49;7.88;;;1.90;;
22715;SDS011;11525;51.152;4.456;2023-02-26T10:43:18;4.47;;;2.17;;
22715;SDS011;11525;51.152;4.456;2023-02-26T10:51:40;2.60;;;2.20;;
22715;SDS011;11525;51.152;4.456;2023-02-26T10:54:13;7.75;;;3.30;;
22715;SDS011;11525;51.152;4.456;2023-02-26T10:56:49;3.83;;;2.85;;
22715;SDS011;11525;51.152;4.456;2023-02-26T10:59:15;3.13;;;1.65;;
22715;SDS011;11525;51.152;4.456;2023-02-26T11:01:41;2.90;;;1.70;;
22715;SDS011;11525;51.152;4.456;2023-02-26T11:04:10;2.72;;;1.80;;
22715;SDS011;11525;51.152;4.456;2023-02-26T11:06:44;4.07;;;1.92;;
22715;SDS011;11525;51.152;4.456;2023-02-26T11:09:39;2.67;;;1.90;;
22715;SDS011;11525;51.152;4.456;2023-02-26T11:14:35;3.00;;;1.90;;
22715;SDS011;11525;51.152;4.456;2023-02-26T11:20:04;3.72;;;3.20;;
22715;SDS011;11525;51.152;4.456;2023-02-26T11:22:57;4.43;;;2.30;;
22715;SDS011;11525;51.152;4.456;2023-02-26T11:25:26;2.53;;;1.90;;
22715;SDS011;11525;51.152;4.456;2023-02-26T11:27:58;4.97;;;2.22;;
22715;SDS011;11525;51.152;4.456;2023-02-26T11:30:26;4.10;;;1.92;;
22715;SDS011;11525;51.152;4.456;2023-02-26T11:32:56;3.38;;;1.90;;
22715;SDS011;11525;51.152;4.456;2023-02-26T11:35:28;3.35;;;1.95;;
22715;SDS011;11525;51.152;4.456;2023-02-26T11:37:56;2.65;;;1.80;;
22715;SDS011;11525;51.152;4.456;2023-02-26T11:40:27;5.47;;;1.80;;
22715;SDS011;11525;51.152;4.456;2023-02-26T11:43:07;2.60;;;2.10;;
22715;SDS011;11525;51.152;4.456;2023-02-26T11:45:46;2.25;;;1.83;;
22715;SDS011;11525;51.152;4.456;2023-02-26T11:48:27;4.47;;;2.58;;
22715;SDS011;11525;51.152;4.456;2023-02-26T11:51:01;4.85;;;2.20;;
22715;SDS011;11525;51.152;4.456;2023-02-26T11:53:31;7.00;;;2.22;;
22715;SDS011;11525;51.152;4.456;2023-02-26T11:56:01;3.30;;;1.90;;
22715;SDS011;11525;51.152;4.456;2023-02-26T11:58:34;3.15;;;2.00;;
22715;SDS011;11525;51.152;4.456;2023-02-26T12:01:03;4.57;;;2.10;;
22715;SDS011;11525;51.152;4.456;2023-02-26T12:03:31;4.90;;;2.67;;
22715;SDS011;11525;51.152;4.456;2023-02-26T12:06:00;5.55;;;2.10;;
22715;SDS011;11525;51.152;4.456;2023-02-26T12:08:31;4.10;;;2.50;;
22715;SDS011;11525;51.152;4.456;2023-02-26T12:13:36;3.33;;;1.80;;
22715;SDS011;11525;51.152;4.456;2023-02-26T12:16:23;4.65;;;2.13;;
22715;SDS011;11525;51.152;4.456;2023-02-26T12:24:41;5.65;;;2.00;;
22715;SDS011;11525;51.152;4.456;2023-02-26T12:27:25;2.00;;;1.80;;
22715;SDS011;11525;51.152;4.456;2023-02-26T12:38:18;2.70;;;2.00;;
22715;SDS011;11525;51.152;4.456;2023-02-26T12:46:41;3.05;;;1.85;;
22715;SDS011;11525;51.152;4.456;2023-02-26T13:08:13;2.53;;;1.70;;
22715;SDS011;11525;51.152;4.456;2023-02-26T13:13:33;1.98;;;1.75;;
22715;SDS011;11525;51.152;4.456;2023-02-26T13:21:27;1.95;;;1.85;;
22715;SDS011;11525;51.152;4.456;2023-02-26T13:24:02;3.22;;;2.05;;
22715;SDS011;11525;51.152;4.456;2023-02-26T13:26:42;1.98;;;1.83;;
22715;SDS011;11525;51.152;4.456;2023-02-26T13:29:20;4.07;;;1.90;;
22715;SDS011;11525;51.152;4.456;2023-02-26T13:31:57;4.03;;;1.92;;
22715;SDS011;11525;51.152;4.456;2023-02-26T13:34:42;6.43;;;1.52;;
22715;SDS011;11525;51.152;4.456;2023-02-26T13:37:41;2.35;;;1.90;;
22715;SDS011;11525;51.152;4.456;2023-02-26T13:43:14;3.38;;;1.73;;
22715;SDS011;11525;51.152;4.456;2023-02-26T13:48:44;2.45;;;1.80;;
22715;SDS011;11525;51.152;4.456;2023-02-26T13:51:39;2.15;;;1.95;;
22715;SDS011;11525;51.152;4.456;2023-02-26T14:01:48;3.10;;;1.67;;
22715;SDS011;11525;51.152;4.456;2023-02-26T14:06:44;1.95;;;1.83;;
22715;SDS011;11525;51.152;4.456;2023-02-26T14:11:56;3.15;;;2.10;;
22715;SDS011;11525;51.152;4.456;2023-02-26T14:14:25;1.98;;;1.70;;
22715;SDS011;11525;51.152;4.456;2023-02-26T14:19:27;1.92;;;1.80;;
22715;SDS011;11525;51.152;4.456;2023-02-26T14:24:44;3.25;;;1.90;;
22715;SDS011;11525;51.152;4.456;2023-02-26T14:35:20;2.58;;;1.60;;
22715;SDS011;11525;51.152;4.456;2023-02-26T14:37:57;3.05;;;1.95;;
22715;SDS011;11525;51.152;4.456;2023-02-26T14:40:30;4.15;;;2.50;;
22715;SDS011;11525;51.152;4.456;2023-02-26T14:43:03;6.35;;;2.22;;
22715;SDS011;11525;51.152;4.456;2023-02-26T14:45:37;6.07;;;2.05;;
22715;SDS011;11525;51.152;4.456;2023-02-26T14:48:06;5.07;;;2.20;;
22715;SDS011;11525;51.152;4.456;2023-02-26T14:50:52;6.55;;;2.58;;
22715;SDS011;11525;51.152;4.456;2023-02-26T15:04:25;2.55;;;1.92;;
22715;SDS011;11525;51.152;4.456;2023-02-26T15:09:48;3.05;;;2.17;;
22715;SDS011;11525;51.152;4.456;2023-02-26T15:17:42;3.17;;;1.80;;
22715;SDS011;11525;51.152;4.456;2023-02-26T15:20:19;4.70;;;2.20;;
22715;SDS011;11525;51.152;4.456;2023-02-26T15:25:48;7.88;;;2.25;;
22715;SDS011;11525;51.152;4.456;2023-02-26T15:28:25;2.80;;;2.13;;
22715;SDS011;11525;51.152;4.456;2023-02-26T15:30:58;2.40;;;1.80;;
22715;SDS011;11525;51.152;4.456;2023-02-26T15:33:25;3.03;;;2.00;;
22715;SDS011;11525;51.152;4.456;2023-02-26T15:35:52;3.63;;;1.60;;
22715;SDS011;11525;51.152;4.456;2023-02-26T15:38:19;2.30;;;2.10;;
22715;SDS011;11525;51.152;4.456;2023-02-26T15:40:46;2.50;;;2.10;;
22715;SDS011;11525;51.152;4.456;2023-02-26T15:43:15;2.72;;;1.70;;
22715;SDS011;11525;51.152;4.456;2023-02-26T15:45:48;2.35;;;1.75;;
22715;SDS011;11525;51.152;4.456;2023-02-26T15:48:30;2.65;;;1.70;;
22715;SDS011;11525;51.152;4.456;2023-02-26T15:51:02;2.38;;;1.67;;
22715;SDS011;11525;51.152;4.456;2023-02-26T15:53:31;1.95;;;1.80;;
22715;SDS011;11525;51.152;4.456;2023-02-26T15:56:05;3.10;;;1.80;;
22715;SDS011;11525;51.152;4.456;2023-02-26T15:58:42;1.90;;;1.75;;
22715;SDS011;11525;51.152;4.456;2023-02-26T16:01:24;3.70;;;1.63;;
22715;SDS011;11525;51.152;4.456;2023-02-26T16:03:52;3.50;;;1.42;;
22715;SDS011;11525;51.152;4.456;2023-02-26T16:06:26;1.98;;;1.65;;
22715;SDS011;11525;51.152;4.456;2023-02-26T16:08:53;1.80;;;1.70;;
22715;SDS011;11525;51.152;4.456;2023-02-26T16:11:19;1.60;;;1.50;;
22715;SDS011;11525;51.152;4.456;2023-02-26T16:13:48;2.67;;;1.95;;
22715;SDS011;11525;51.152;4.456;2023-02-26T16:16:26;4.03;;;1.50;;
22715;SDS011;11525;51.152;4.456;2023-02-26T16:18:58;3.33;;;1.75;;
22715;SDS011;11525;51.152;4.456;2023-02-26T16:23:50;4.18;;;1.80;;
22715;SDS011;11525;51.152;4.456;2023-02-26T16:26:22;3.90;;;1.75;;
22715;SDS011;11525;51.152;4.456;2023-02-26T16:28:54;3.50;;;1.85;;
22715;SDS011;11525;51.152;4.456;2023-02-26T16:31:29;4.65;;;1.98;;
22715;SDS011;11525;51.152;4.456;2023-02-26T16:34:01;4.68;;;2.03;;
22715;SDS011;11525;51.152;4.456;2023-02-26T16:36:36;2.75;;;2.13;;
22715;SDS011;11525;51.152;4.456;2023-02-26T16:41:32;3.00;;;1.75;;
22715;SDS011;11525;51.152;4.456;2023-02-26T16:44:03;2.10;;;2.00;;
22715;SDS011;11525;51.152;4.456;2023-02-26T16:47:00;3.55;;;2.03;;
22715;SDS011;11525;51.152;4.456;2023-02-26T16:49:33;3.55;;;2.03;;
22715;SDS011;11525;51.152;4.456;2023-02-26T16:52:02;3.65;;;2.42;;
22715;SDS011;11525;51.152;4.456;2023-02-26T16:54:30;3.47;;;1.80;;
22715;SDS011;11525;51.152;4.456;2023-02-26T16:57:22;2.00;;;1.80;;
22715;SDS011;11525;51.152;4.456;2023-02-26T17:00:00;2.55;;;2.20;;
22715;SDS011;11525;51.152;4.456;2023-02-26T17:02:33;9.50;;;2.95;;
22715;SDS011;11525;51.152;4.456;2023-02-26T17:05:02;2.78;;;2.40;;
22715;SDS011;11525;51.152;4.456;2023-02-26T17:07:45;6.15;;;4.35;;
22715;SDS011;11525;51.152;4.456;2023-02-26T17:10:22;2.78;;;2.33;;
22715;SDS011;11525;51.152;4.456;2023-02-26T17:13:00;3.85;;;2.38;;
22715;SDS011;11525;51.152;4.456;2023-02-26T17:15:30;3.55;;;2.80;;
22715;SDS011;11525;51.152;4.456;2023-02-26T17:18:00;2.88;;;2.35;;
22715;SDS011;11525;51.152;4.456;2023-02-26T17:20:27;4.72;;;2.63;;
22715;SDS011;11525;51.152;4.456;2023-02-26T17:22:54;4.70;;;2.45;;
22715;SDS011;11525;51.152;4.456;2023-02-26T17:25:22;3.47;;;2.65;;
22715;SDS011;11525;51.152;4.456;2023-02-26T17:27:50;5.22;;;2.67;;
22715;SDS011;11525;51.152;4.456;2023-02-26T17:30:17;4.95;;;3.22;;
22715;SDS011;11525;51.152;4.456;2023-02-26T17:32:44;4.35;;;2.90;;
22715;SDS011;11525;51.152;4.456;2023-02-26T17:35:11;4.80;;;3.40;;
22715;SDS011;11525;51.152;4.456;2023-02-26T17:37:40;9.20;;;3.28;;
22715;SDS011;11525;51.152;4.456;2023-02-26T17:40:18;4.18;;;3.03;;
22715;SDS011;11525;51.152;4.456;2023-02-26T17:42:46;6.40;;;2.88;;
22715;SDS011;11525;51.152;4.456;2023-02-26T17:45:12;2.60;;;2.40;;
22715;SDS011;11525;51.152;4.456;2023-02-26T17:47:39;5.40;;;2.60;;
22715;SDS011;11525;51.152;4.456;2023-02-26T17:50:28;2.90;;;2.60;;
22715;SDS011;11525;51.152;4.456;2023-02-26T17:52:56;7.03;;;3.83;;
22715;SDS011;11525;51.152;4.456;2023-02-26T17:55:22;9.02;;;5.78;;
22715;SDS011;11525;51.152;4.456;2023-02-26T17:57:47;5.18;;;3.72;;
22715;SDS011;11525;51.152;4.456;2023-02-26T18:00:14;3.92;;;3.28;;
22715;SDS011;11525;51.152;4.456;2023-02-26T18:02:41;5.03;;;3.75;;